Time;durP1;ratioP1;P1;durP2;ratioP2;P2;SDS_P1;SDS_P2;PMS_P1;PMS_P2;Temp;Humidity;BMP_temperature;BMP_pressure;BME280_temperature;BME280_humidity;BME280_pressure;Samples;Min_cycle;Max_cycle;Signal;HPM_P1;HPM_P2
2021/11/29 00:00:31;;;;;;;6.82;4.43;;;0.70;99.90;;;;;;5019588;28;20072;-53
2021/11/29 00:03:02;;;;;;;6.15;4.40;;;0.70;99.90;;;;;;5017455;28;20063;-54
2021/11/29 00:05:29;;;;;;;6.97;5.70;;;0.70;99.90;;;;;;5020708;28;20041;-55
2021/11/29 00:07:57;;;;;;;6.00;4.10;;;0.70;99.90;;;;;;5020748;28;20091;-55
2021/11/29 00:10:24;;;;;;;6.07;4.53;;;0.60;99.90;;;;;;5020135;28;20583;-55
2021/11/29 00:12:50;;;;;;;6.05;4.13;;;0.60;99.90;;;;;;5019949;28;20124;-57
2021/11/29 00:15:17;;;;;;;4.47;3.15;;;0.60;99.90;;;;;;5019528;28;20124;-57
2021/11/29 00:17:44;;;;;;;5.93;3.60;;;0.50;99.90;;;;;;5019129;28;20281;-56
2021/11/29 00:20:12;;;;;;;4.75;3.42;;;0.50;99.90;;;;;;5018515;28;20085;-56
2021/11/29 00:22:39;;;;;;;7.43;4.57;;;0.40;99.90;;;;;;5020302;28;20072;-56
2021/11/29 00:25:07;;;;;;;6.50;4.43;;;0.40;99.90;;;;;;5018183;28;20073;-57
2021/11/29 00:27:34;;;;;;;5.88;4.43;;;0.40;99.90;;;;;;5015617;28;20133;-57
2021/11/29 00:30:00;;;;;;;6.88;4.32;;;0.30;99.90;;;;;;5017307;28;20045;-56
2021/11/29 00:32:27;;;;;;;4.35;3.03;;;0.30;99.90;;;;;;5020309;28;20088;-56
2021/11/29 00:34:54;;;;;;;4.88;3.28;;;0.30;99.90;;;;;;5019857;28;20129;-54
2021/11/29 00:37:21;;;;;;;4.85;3.10;;;0.30;99.90;;;;;;5020458;28;20050;-56
2021/11/29 00:39:47;;;;;;;4.13;2.97;;;0.30;99.90;;;;;;5018882;28;20077;-55
2021/11/29 00:42:14;;;;;;;5.30;3.22;;;0.20;99.90;;;;;;5020136;28;20514;-57
2021/11/29 00:44:41;;;;;;;4.75;3.38;;;0.20;99.90;;;;;;5017409;28;20616;-57
2021/11/29 00:47:08;;;;;;;5.45;3.28;;;0.20;99.90;;;;;;5019593;28;20111;-56
2021/11/29 00:49:35;;;;;;;6.18;3.83;;;0.20;99.90;;;;;;5019061;28;20631;-54
2021/11/29 00:52:01;;;;;;;5.07;3.58;;;0.10;99.90;;;;;;5020596;28;20529;-56
2021/11/29 00:54:28;;;;;;;5.15;3.80;;;0.20;99.90;;;;;;5019478;28;20077;-55
2021/11/29 00:56:55;;;;;;;5.60;3.92;;;0.10;99.90;;;;;;5020164;28;20170;-57
2021/11/29 00:59:22;;;;;;;5.55;4.13;;;0.10;99.90;;;;;;5017223;28;20069;-50
2021/11/29 01:01:48;;;;;;;5.18;3.53;;;0.10;99.90;;;;;;5020579;28;20555;-56
2021/11/29 01:04:17;;;;;;;4.45;3.00;;;0.10;99.90;;;;;;5019672;28;20413;-56
2021/11/29 01:06:43;;;;;;;3.75;2.83;;;0.10;99.90;;;;;;5020133;28;20129;-54
2021/11/29 01:09:10;;;;;;;6.25;3.40;;;0.00;99.90;;;;;;5018782;28;20689;-55
2021/11/29 01:11:37;;;;;;;5.13;2.88;;;0.00;99.90;;;;;;5023887;28;20463;-56
2021/11/29 01:14:03;;;;;;;3.67;2.42;;;0.00;99.90;;;;;;5023225;28;20905;-53
2021/11/29 01:16:30;;;;;;;3.78;2.63;;;0.10;99.90;;;;;;5021484;28;20080;-56
2021/11/29 01:18:57;;;;;;;3.63;2.47;;;0.10;99.90;;;;;;5023193;28;20570;-55
2021/11/29 01:21:24;;;;;;;3.92;2.63;;;0.10;99.90;;;;;;5023662;28;20517;-55
2021/11/29 01:23:52;;;;;;;3.88;2.45;;;0.20;99.90;;;;;;5022928;28;20509;-55
2021/11/29 01:26:19;;;;;;;3.08;2.15;;;0.20;99.90;;;;;;5023254;28;20065;-56
2021/11/29 01:28:45;;;;;;;3.35;2.38;;;0.20;99.90;;;;;;5019850;28;20623;-56
2021/11/29 01:31:12;;;;;;;3.45;2.30;;;0.20;99.90;;;;;;5022074;28;20085;-56
2021/11/29 01:33:39;;;;;;;3.88;2.67;;;0.20;99.90;;;;;;5017977;28;20507;-54
2021/11/29 01:36:06;;;;;;;4.35;3.17;;;0.10;99.90;;;;;;5021805;28;20077;-56
2021/11/29 01:38:33;;;;;;;4.60;2.58;;;0.10;99.90;;;;;;5023385;28;20072;-56
2021/11/29 01:41:00;;;;;;;3.78;2.45;;;0.10;99.90;;;;;;5023099;28;20484;-55
2021/11/29 01:43:27;;;;;;;4.30;2.85;;;0.10;99.90;;;;;;5022817;28;20115;-55
2021/11/29 01:45:54;;;;;;;3.80;2.65;;;0.10;99.90;;;;;;5022071;28;20124;-56
2021/11/29 01:48:22;;;;;;;3.90;3.08;;;0.00;99.90;;;;;;5022615;28;20915;-56
2021/11/29 01:50:51;;;;;;;4.30;3.00;;;0.00;99.90;;;;;;5022983;28;20115;-57
2021/11/29 01:53:19;;;;;;;4.68;3.47;;;0.00;99.90;;;;;;5022978;28;20120;-58
2021/11/29 01:55:45;;;;;;;5.78;3.60;;;-0.10;99.90;;;;;;5023408;28;20042;-55
2021/11/29 01:58:12;;;;;;;4.13;2.85;;;-0.10;99.90;;;;;;5022523;28;20072;-57
2021/11/29 02:00:42;;;;;;;4.63;3.17;;;-0.10;99.90;;;;;;5021747;28;20075;-56
2021/11/29 02:03:09;;;;;;;4.40;3.35;;;-0.20;99.90;;;;;;5022396;28;20106;-57
2021/11/29 02:05:36;;;;;;;4.57;3.33;;;-0.20;99.90;;;;;;5022791;28;20099;-55
2021/11/29 02:08:04;;;;;;;4.60;3.38;;;-0.20;99.90;;;;;;5023010;28;20174;-57
2021/11/29 02:10:30;;;;;;;4.15;3.00;;;-0.30;99.90;;;;;;5021158;28;20073;-56
2021/11/29 02:12:57;;;;;;;5.43;3.88;;;-0.30;99.90;;;;;;5022246;28;20100;-56
2021/11/29 02:15:24;;;;;;;5.05;3.00;;;-0.30;99.90;;;;;;5021844;28;20132;-55
2021/11/29 02:17:51;;;;;;;3.83;2.70;;;-0.40;99.90;;;;;;5022138;28;20482;-55
2021/11/29 02:20:18;;;;;;;4.03;2.75;;;-0.40;99.90;;;;;;5021738;28;20077;-54
2021/11/29 02:22:45;;;;;;;4.28;2.90;;;-0.40;99.90;;;;;;5022251;28;20149;-56
2021/11/29 02:25:13;;;;;;;4.07;2.80;;;-0.40;99.90;;;;;;5022157;28;20076;-55
2021/11/29 02:27:43;;;;;;;4.90;3.10;;;-0.40;99.90;;;;;;5020620;28;20076;-54
2021/11/29 02:30:11;;;;;;;4.18;3.03;;;-0.50;99.90;;;;;;5018610;28;20144;-56
2021/11/29 02:32:38;;;;;;;4.47;3.00;;;-0.50;99.90;;;;;;5022061;28;20437;-57
2021/11/29 02:35:05;;;;;;;5.10;3.10;;;-0.50;99.90;;;;;;5022158;28;20184;-58
2021/11/29 02:37:32;;;;;;;4.22;2.83;;;-0.50;99.90;;;;;;5023973;28;20057;-56
2021/11/29 02:39:59;;;;;;;4.22;3.00;;;-0.60;99.90;;;;;;5023448;28;20089;-55
2021/11/29 02:42:25;;;;;;;3.33;2.47;;;-0.60;99.90;;;;;;5023324;28;20049;-53
2021/11/29 02:44:52;;;;;;;5.50;3.13;;;-0.60;99.90;;;;;;5022952;28;20417;-56
2021/11/29 02:47:19;;;;;;;4.55;3.00;;;-0.70;99.90;;;;;;5026616;28;20484;-55
2021/11/29 02:49:46;;;;;;;3.70;2.83;;;-0.70;99.90;;;;;;5025116;28;20643;-55
2021/11/29 02:52:13;;;;;;;4.80;2.97;;;-0.70;99.90;;;;;;5025775;28;20137;-55
2021/11/29 02:54:40;;;;;;;4.80;3.10;;;-0.70;99.90;;;;;;5025388;28;20065;-55
2021/11/29 02:57:08;;;;;;;5.47;3.33;;;-0.70;99.90;;;;;;5025447;28;20080;-53
2021/11/29 02:59:37;;;;;;;5.63;3.85;;;-0.70;99.90;;;;;;5024491;28;20437;-56
2021/11/29 03:02:06;;;;;;;4.72;3.85;;;-0.80;99.90;;;;;;5024398;28;20463;-54
2021/11/29 03:04:33;;;;;;;5.30;3.63;;;-0.70;99.90;;;;;;5024907;28;20045;-57
2021/11/29 03:07:00;;;;;;;5.68;4.28;;;-0.80;99.90;;;;;;5025985;28;20557;-56
2021/11/29 03:09:27;;;;;;;5.20;4.20;;;-0.70;99.90;;;;;;5025164;28;20423;-59
2021/11/29 03:11:54;;;;;;;5.55;3.63;;;-0.70;99.90;;;;;;5024001;28;20053;-56
2021/11/29 03:14:21;;;;;;;5.50;4.15;;;-0.60;99.90;;;;;;5023433;28;20227;-55
2021/11/29 03:16:48;;;;;;;5.10;3.80;;;-0.60;99.90;;;;;;5025853;28;20469;-55
2021/11/29 03:19:15;;;;;;;5.10;3.60;;;-0.60;99.90;;;;;;5024094;28;20053;-55
2021/11/29 03:21:42;;;;;;;5.20;3.53;;;-0.60;99.90;;;;;;5025564;28;20516;-55
2021/11/29 03:24:09;;;;;;;6.40;4.25;;;-0.60;99.90;;;;;;5023084;28;21014;-55
2021/11/29 03:26:36;;;;;;;6.10;4.78;;;-0.60;99.90;;;;;;5025343;28;20045;-55
2021/11/29 03:29:05;;;;;;;7.22;4.45;;;-0.60;99.90;;;;;;5017821;28;20176;-55
2021/11/29 03:31:33;;;;;;;6.43;4.18;;;-0.60;99.90;;;;;;5021505;28;20660;-56
2021/11/29 03:34:01;;;;;;;6.00;4.03;;;-0.60;99.90;;;;;;5023127;28;20054;-56
2021/11/29 03:36:30;;;;;;;7.13;4.40;;;-0.60;99.90;;;;;;5024393;28;20284;-55
2021/11/29 03:38:57;;;;;;;6.50;4.28;;;-0.60;99.90;;;;;;5020830;28;20080;-56
2021/11/29 03:41:24;;;;;;;5.22;3.85;;;-0.60;99.90;;;;;;5024640;28;20120;-56
2021/11/29 03:43:51;;;;;;;6.30;3.85;;;-0.60;99.90;;;;;;5024212;28;20584;-56
2021/11/29 03:46:18;;;;;;;5.07;3.28;;;-0.60;99.90;;;;;;5022161;28;20083;-55
2021/11/29 03:48:45;;;;;;;5.35;3.85;;;-0.70;99.90;;;;;;5006602;28;20308;-56
2021/11/29 03:51:11;;;;;;;7.40;4.20;;;-0.70;99.90;;;;;;5006803;28;20133;-54
2021/11/29 03:53:38;;;;;;;6.10;4.57;;;-0.70;99.90;;;;;;5024198;28;20111;-55
2021/11/29 03:56:05;;;;;;;6.65;4.22;;;-0.70;99.90;;;;;;5023731;28;20855;-55
2021/11/29 03:58:32;;;;;;;7.60;4.63;;;-0.80;99.90;;;;;;5018655;28;20045;-54
2021/11/29 04:00:59;;;;;;;6.65;4.95;;;-0.80;99.90;;;;;;5023347;28;20088;-55
2021/11/29 04:03:26;;;;;;;9.82;6.13;;;-0.80;99.90;;;;;;5023409;28;20056;-56
2021/11/29 04:05:53;;;;;;;8.50;5.40;;;-0.80;99.90;;;;;;5023282;28;20072;-55
2021/11/29 04:08:20;;;;;;;8.77;5.78;;;-0.80;99.90;;;;;;5024331;28;20108;-55
2021/11/29 04:10:46;;;;;;;8.82;5.50;;;-0.80;99.90;;;;;;5024338;28;20080;-56
2021/11/29 04:13:13;;;;;;;7.15;4.85;;;-0.80;99.90;;;;;;5023884;28;20041;-55
2021/11/29 04:15:40;;;;;;;10.15;5.88;;;-0.80;99.90;;;;;;5022881;28;20045;-55
2021/11/29 04:18:07;;;;;;;10.95;6.80;;;-0.80;99.90;;;;;;5022529;28;20077;-54
2021/11/29 04:20:33;;;;;;;9.45;5.82;;;-0.80;99.90;;;;;;5024307;28;20102;-55
2021/11/29 04:23:00;;;;;;;8.13;5.88;;;-0.80;99.90;;;;;;5022654;28;20137;-55
2021/11/29 04:25:33;;;;;;;7.63;5.07;;;-0.80;99.90;;;;;;5023042;28;20132;-55
2021/11/29 04:28:00;;;;;;;10.07;6.82;;;-0.90;99.90;;;;;;5015167;28;20132;-55
2021/11/29 04:30:27;;;;;;;10.85;7.72;;;-0.80;99.90;;;;;;5023397;28;20148;-55
2021/11/29 04:32:55;;;;;;;10.00;6.82;;;-0.80;99.90;;;;;;5023510;28;20133;-55
2021/11/29 04:35:21;;;;;;;10.07;5.95;;;-0.80;99.90;;;;;;5024291;28;20098;-55
2021/11/29 04:37:48;;;;;;;9.15;5.63;;;-0.80;99.90;;;;;;5022489;28;20058;-55
2021/11/29 04:40:15;;;;;;;10.35;6.15;;;-0.90;99.90;;;;;;5024112;28;20139;-52
2021/11/29 04:42:42;;;;;;;9.50;5.57;;;-0.90;99.90;;;;;;5023478;28;20465;-54
2021/11/29 04:45:09;;;;;;;8.80;5.63;;;-0.90;99.90;;;;;;5025301;28;20128;-55
2021/11/29 04:47:36;;;;;;;7.28;5.22;;;-0.90;99.90;;;;;;5027990;28;20069;-55
2021/11/29 04:50:03;;;;;;;10.73;7.68;;;-0.90;99.90;;;;;;5027154;28;20087;-56
2021/11/29 04:52:29;;;;;;;10.43;6.53;;;-0.90;99.90;;;;;;5026660;28;20157;-54
2021/11/29 04:54:56;;;;;;;10.02;6.95;;;-0.90;99.90;;;;;;5027875;28;20140;-56
2021/11/29 04:57:23;;;;;;;8.43;5.80;;;-0.90;99.90;;;;;;5026144;28;20084;-54
2021/11/29 04:59:50;;;;;;;10.30;7.32;;;-0.90;99.90;;;;;;5026674;28;20128;-55
2021/11/29 05:02:16;;;;;;;10.68;6.85;;;-0.90;99.90;;;;;;5028155;28;20140;-55
2021/11/29 05:04:46;;;;;;;8.35;6.15;;;-0.90;99.90;;;;;;5027270;28;20049;-57
2021/11/29 05:07:13;;;;;;;8.32;5.35;;;-0.90;99.90;;;;;;5027908;28;20530;-56
2021/11/29 05:09:42;;;;;;;7.90;6.10;;;-0.90;99.90;;;;;;5026070;28;20165;-56
2021/11/29 05:12:09;;;;;;;8.48;5.38;;;-0.90;99.90;;;;;;5027490;28;20446;-56
2021/11/29 05:14:36;;;;;;;8.30;5.38;;;-0.90;99.90;;;;;;5026356;28;20132;-56
2021/11/29 05:17:03;;;;;;;8.75;5.50;;;-0.90;99.90;;;;;;5027877;28;20113;-56
2021/11/29 05:19:30;;;;;;;7.07;5.55;;;-0.90;99.90;;;;;;5026659;28;20132;-55
2021/11/29 05:21:57;;;;;;;7.68;5.70;;;-0.90;99.90;;;;;;5026972;28;20418;-56
2021/11/29 05:24:23;;;;;;;8.13;5.70;;;-0.90;99.90;;;;;;5026214;28;20133;-53
2021/11/29 05:26:50;;;;;;;8.63;5.55;;;-0.90;99.90;;;;;;5025977;28;20065;-54
2021/11/29 05:29:17;;;;;;;6.38;4.30;;;-0.90;99.90;;;;;;5025065;28;20091;-56
2021/11/29 05:31:44;;;;;;;6.18;4.13;;;-0.90;99.90;;;;;;5027034;28;20103;-55
2021/11/29 05:34:11;;;;;;;6.53;4.25;;;-0.90;99.90;;;;;;5026586;28;20069;-54
2021/11/29 05:36:42;;;;;;;7.03;4.65;;;-1.00;99.90;;;;;;5026852;28;20171;-53
2021/11/29 05:39:09;;;;;;;10.02;5.85;;;-1.00;99.90;;;;;;5026897;28;20136;-55
2021/11/29 05:41:35;;;;;;;7.85;5.13;;;-1.00;99.90;;;;;;5027114;28;20152;-55
2021/11/29 05:44:03;;;;;;;9.93;5.43;;;-1.00;99.90;;;;;;5027021;28;20131;-56
2021/11/29 05:46:29;;;;;;;7.38;5.10;;;-1.00;99.90;;;;;;5025644;28;20133;-55
2021/11/29 05:48:59;;;;;;;7.03;5.15;;;-1.00;99.90;;;;;;5020133;28;20456;-55
2021/11/29 05:51:26;;;;;;;8.38;5.40;;;-1.00;99.90;;;;;;5022163;28;20170;-56
2021/11/29 05:53:53;;;;;;;8.23;5.30;;;-1.00;99.90;;;;;;5016130;28;20940;-55
2021/11/29 05:56:20;;;;;;;9.45;6.65;;;-1.00;99.90;;;;;;5019011;28;21449;-55
2021/11/29 05:58:47;;;;;;;9.45;6.35;;;-1.00;99.90;;;;;;5019626;28;20241;-55
2021/11/29 06:01:14;;;;;;;8.50;5.72;;;-1.00;99.90;;;;;;5017799;28;20073;-51
2021/11/29 06:03:41;;;;;;;8.65;6.28;;;-1.00;99.90;;;;;;5018125;28;20052;-56
2021/11/29 06:06:08;;;;;;;9.57;5.80;;;-1.00;99.90;;;;;;5018501;28;20161;-56
2021/11/29 06:08:38;;;;;;;8.50;5.68;;;-1.00;99.90;;;;;;5018270;28;20157;-55
2021/11/29 06:11:05;;;;;;;8.55;5.72;;;-1.00;99.90;;;;;;5019202;28;20798;-56
2021/11/29 06:13:32;;;;;;;9.52;6.72;;;-0.90;99.90;;;;;;5018071;28;20142;-55
2021/11/29 06:15:58;;;;;;;8.20;5.53;;;-0.90;99.90;;;;;;5016231;28;20073;-55
2021/11/29 06:18:25;;;;;;;8.20;5.63;;;-0.90;99.90;;;;;;5018191;28;20060;-55
2021/11/29 06:20:52;;;;;;;8.00;5.43;;;-0.90;99.90;;;;;;5014538;28;20201;-53
2021/11/29 06:23:19;;;;;;;8.65;5.45;;;-0.90;99.90;;;;;;5017631;28;20137;-55
2021/11/29 06:25:45;;;;;;;8.23;5.15;;;-0.90;99.90;;;;;;5016743;28;20140;-55
2021/11/29 06:28:12;;;;;;;9.77;6.07;;;-0.90;99.90;;;;;;5017331;28;20551;-55
2021/11/29 06:30:39;;;;;;;10.88;7.80;;;-0.90;99.90;;;;;;5017765;28;20096;-56
2021/11/29 06:33:06;;;;;;;10.52;7.70;;;-0.90;99.90;;;;;;5018824;28;20128;-54
2021/11/29 06:35:33;;;;;;;14.82;8.60;;;-0.90;99.90;;;;;;5018625;28;20048;-55
2021/11/29 06:38:03;;;;;;;11.50;8.02;;;-0.90;99.90;;;;;;5018604;28;20059;-56
2021/11/29 06:40:31;;;;;;;11.30;7.28;;;-0.90;99.90;;;;;;5018401;28;20572;-55
2021/11/29 06:42:58;;;;;;;11.73;7.95;;;-0.90;99.90;;;;;;5017905;28;20072;-55
2021/11/29 06:45:24;;;;;;;11.85;7.50;;;-0.80;99.90;;;;;;5017677;28;20188;-56
2021/11/29 06:47:52;;;;;;;9.13;6.40;;;-0.80;99.90;;;;;;5015743;28;20041;-55
2021/11/29 06:50:19;;;;;;;10.35;7.20;;;-0.80;99.90;;;;;;5015398;28;20130;-56
2021/11/29 06:52:46;;;;;;;10.60;7.10;;;-0.80;99.90;;;;;;5017081;28;20080;-55
2021/11/29 06:55:15;;;;;;;11.63;8.68;;;-0.80;99.90;;;;;;5015542;28;20065;-56
2021/11/29 06:57:42;;;;;;;11.32;7.35;;;-0.80;99.90;;;;;;5017100;28;20125;-56
2021/11/29 07:00:11;;;;;;;13.05;8.40;;;-0.80;99.90;;;;;;5016177;28;20202;-56
2021/11/29 07:02:40;;;;;;;12.38;8.88;;;-0.80;99.90;;;;;;5016918;28;20069;-56
2021/11/29 07:05:08;;;;;;;11.57;7.80;;;-0.80;99.90;;;;;;5016479;28;20050;-55
2021/11/29 07:07:35;;;;;;;12.38;7.93;;;-0.80;99.90;;;;;;5016243;28;20164;-55
2021/11/29 07:10:02;;;;;;;10.70;7.70;;;-0.80;99.90;;;;;;5014221;28;20723;-56
2021/11/29 07:12:29;;;;;;;12.45;7.43;;;-0.70;99.90;;;;;;5015910;28;20219;-56
2021/11/29 07:14:56;;;;;;;11.13;7.55;;;-0.70;99.90;;;;;;5015068;28;20045;-57
2021/11/29 07:17:23;;;;;;;10.43;7.40;;;-0.70;99.90;;;;;;5015107;28;20627;-56
2021/11/29 07:19:53;;;;;;;12.35;7.30;;;-0.80;99.90;;;;;;5014050;28;20081;-57
2021/11/29 07:22:20;;;;;;;9.23;6.38;;;-0.70;99.90;;;;;;5016437;28;20077;-57
2021/11/29 07:24:51;;;;;;;10.27;6.22;;;-0.70;99.90;;;;;;5014397;28;20094;-56
2021/11/29 07:27:18;;;;;;;11.85;7.57;;;-0.80;99.90;;;;;;5017540;28;20145;-55
2021/11/29 07:29:45;;;;;;;10.77;7.53;;;-0.80;99.90;;;;;;4997646;28;20940;-56
2021/11/29 07:32:12;;;;;;;9.85;6.80;;;-0.80;99.90;;;;;;5015874;28;20696;-56
2021/11/29 07:34:39;;;;;;;9.45;6.18;;;-0.80;99.90;;;;;;5016205;28;20122;-56
2021/11/29 07:37:06;;;;;;;9.23;6.07;;;-0.80;99.90;;;;;;5017753;28;20297;-57
2021/11/29 07:39:32;;;;;;;7.82;5.38;;;-0.80;99.90;;;;;;5016668;28;20139;-55
2021/11/29 07:42:00;;;;;;;10.02;6.72;;;-0.80;99.90;;;;;;5017315;28;20115;-57
2021/11/29 07:44:26;;;;;;;8.95;5.50;;;-0.80;99.90;;;;;;5014102;28;20143;-56
2021/11/29 07:46:53;;;;;;;7.30;4.82;;;-0.80;99.90;;;;;;5016957;28;20042;-57
2021/11/29 07:49:22;;;;;;;8.57;5.25;;;-0.70;99.90;;;;;;5016408;28;20221;-54
2021/11/29 07:51:49;;;;;;;10.32;6.47;;;-0.70;99.90;;;;;;5014925;28;20073;-53
2021/11/29 07:54:16;;;;;;;7.15;5.18;;;-0.70;99.90;;;;;;5012623;28;20057;-55
2021/11/29 07:56:43;;;;;;;9.55;6.03;;;-0.70;99.90;;;;;;5017601;28;20471;-55
2021/11/29 07:59:09;;;;;;;10.85;7.15;;;-0.70;99.90;;;;;;5016311;28;20053;-52
2021/11/29 08:01:36;;;;;;;8.93;6.05;;;-0.70;99.90;;;;;;5017281;28;20549;-55
2021/11/29 08:04:03;;;;;;;9.93;6.53;;;-0.70;99.90;;;;;;5017151;28;20163;-55
2021/11/29 08:06:30;;;;;;;10.07;6.75;;;-0.60;99.90;;;;;;5017147;28;20084;-56
2021/11/29 08:08:57;;;;;;;11.45;7.10;;;-0.70;99.90;;;;;;5016911;28;20772;-53
2021/11/29 08:11:24;;;;;;;9.30;6.22;;;-0.60;99.90;;;;;;5016888;28;20628;-52
2021/11/29 08:13:50;;;;;;;10.02;6.45;;;-0.60;99.90;;;;;;5017155;28;20120;-56
2021/11/29 08:16:17;;;;;;;10.88;6.97;;;-0.50;99.90;;;;;;5014487;28;20136;-54
2021/11/29 08:18:44;;;;;;;9.38;6.38;;;-0.50;99.90;;;;;;5013201;28;20045;-55
2021/11/29 08:21:11;;;;;;;12.02;7.28;;;-0.50;99.90;;;;;;5015046;28;20454;-57
2021/11/29 08:23:38;;;;;;;9.73;6.65;;;-0.50;99.90;;;;;;5011981;28;20041;-54
2021/11/29 08:26:27;;;;;;;15.20;10.30;;;-0.40;99.90;;;;;;5016446;28;20059;-55
2021/11/29 08:28:53;;;;;;;12.30;8.75;;;-0.40;99.90;;;;;;5016381;28;20129;-54
2021/11/29 08:31:20;;;;;;;16.95;9.07;;;-0.40;99.90;;;;;;5015643;28;20252;-54
2021/11/29 08:33:47;;;;;;;13.70;8.68;;;-0.30;99.90;;;;;;5016784;28;20053;-54
2021/11/29 08:36:13;;;;;;;12.65;8.77;;;-0.30;99.90;;;;;;5017132;28;20163;-53
2021/11/29 08:38:41;;;;;;;11.02;8.00;;;-0.30;99.90;;;;;;5015627;28;20050;-54
2021/11/29 08:41:08;;;;;;;11.93;7.97;;;-0.20;99.90;;;;;;5016749;28;20125;-55
2021/11/29 08:43:38;;;;;;;11.60;7.50;;;-0.20;99.90;;;;;;5015277;28;20080;-53
2021/11/29 08:46:07;;;;;;;10.90;7.88;;;-0.10;99.90;;;;;;5013980;28;20085;-55
2021/11/29 08:48:35;;;;;;;11.57;7.78;;;-0.10;99.90;;;;;;5016658;28;20059;-53
2021/11/29 08:51:01;;;;;;;11.93;8.25;;;0.00;99.90;;;;;;5013717;28;20177;-55
2021/11/29 08:53:28;;;;;;;12.30;8.00;;;0.00;99.90;;;;;;5017116;28;20125;-56
2021/11/29 08:55:55;;;;;;;11.00;7.75;;;0.00;99.90;;;;;;5016598;28;20125;-54
2021/11/29 08:58:22;;;;;;;10.05;6.90;;;0.10;99.90;;;;;;5016630;28;20124;-57
2021/11/29 09:00:52;;;;;;;8.70;6.70;;;0.10;99.90;;;;;;5014592;28;20143;-56
2021/11/29 09:03:19;;;;;;;14.02;7.95;;;0.20;99.90;;;;;;5015974;28;20049;-55
2021/11/29 09:05:46;;;;;;;12.13;7.40;;;0.20;99.90;;;;;;5016721;28;20049;-58
2021/11/29 09:08:13;;;;;;;13.48;9.07;;;0.30;99.90;;;;;;5015815;28;20112;-57
2021/11/29 09:10:40;;;;;;;13.32;8.82;;;0.30;99.90;;;;;;5015026;28;20084;-56
2021/11/29 09:13:31;;;;;;;10.60;7.82;;;0.40;99.90;;;;;;5014369;28;20052;-54
2021/11/29 09:16:01;;;;;;;11.63;7.10;;;0.40;99.90;;;;;;5010681;28;20211;-56
2021/11/29 09:18:29;;;;;;;10.88;7.30;;;0.50;99.90;;;;;;5016061;28;20049;-55
2021/11/29 09:20:56;;;;;;;10.35;7.45;;;0.50;99.90;;;;;;5014699;28;20205;-55
2021/11/29 09:23:22;;;;;;;11.88;8.70;;;0.60;99.90;;;;;;5016342;28;20088;-55
2021/11/29 09:25:49;;;;;;;12.00;8.43;;;0.70;99.90;;;;;;5015589;28;20053;-58
2021/11/29 09:28:16;;;;;;;10.57;6.95;;;0.70;99.90;;;;;;5015015;28;20117;-56
2021/11/29 09:30:44;;;;;;;11.65;7.68;;;0.80;99.90;;;;;;5017457;28;20104;-56
2021/11/29 09:33:11;;;;;;;11.88;7.70;;;0.80;99.90;;;;;;5018882;28;20156;-56
2021/11/29 09:35:38;;;;;;;14.20;9.15;;;0.90;99.90;;;;;;5019959;28;20132;-56
2021/11/29 09:38:05;;;;;;;12.68;8.85;;;0.90;99.90;;;;;;5020149;28;20060;-56
2021/11/29 09:40:34;;;;;;;11.75;8.52;;;0.90;99.90;;;;;;5020083;28;20160;-56
2021/11/29 09:43:03;;;;;;;11.68;9.07;;;1.00;99.90;;;;;;5013448;28;20076;-56
2021/11/29 09:45:30;;;;;;;12.40;8.40;;;1.00;99.90;;;;;;5018599;28;20148;-56
2021/11/29 09:47:57;;;;;;;11.10;7.72;;;1.10;99.90;;;;;;5018783;28;20137;-55
2021/11/29 09:50:25;;;;;;;11.00;7.72;;;1.20;99.90;;;;;;5018383;28;20164;-57
2021/11/29 09:52:52;;;;;;;11.63;7.78;;;1.20;99.90;;;;;;5019683;28;20092;-55
2021/11/29 09:55:22;;;;;;;12.43;8.38;;;1.30;99.90;;;;;;5020443;28;20081;-57
2021/11/29 09:57:48;;;;;;;13.30;8.18;;;1.30;99.90;;;;;;5020076;28;20215;-57
2021/11/29 10:00:22;;;;;;;13.07;9.63;;;1.30;99.90;;;;;;5019293;28;20076;-56
2021/11/29 10:02:49;;;;;;;16.75;9.95;;;1.30;99.90;;;;;;5018350;28;20046;-54
2021/11/29 10:05:18;;;;;;;12.98;9.30;;;1.30;99.90;;;;;;5020460;28;20064;-56
2021/11/29 10:07:49;;;;;;;11.30;8.30;;;1.40;99.90;;;;;;5019604;28;20088;-55
2021/11/29 10:10:19;;;;;;;11.73;8.55;;;1.50;99.90;;;;;;5019486;28;20119;-56
2021/11/29 10:12:47;;;;;;;11.85;8.60;;;1.50;99.90;;;;;;5018817;28;20133;-51
2021/11/29 10:15:22;;;;;;;13.80;9.40;;;1.60;99.90;;;;;;5019352;28;20050;-56
2021/11/29 10:17:59;;;;;;;10.90;7.65;;;1.50;99.90;;;;;;5019114;28;20154;-54
2021/11/29 10:20:32;;;;;;;10.27;7.70;;;1.60;99.90;;;;;;5016588;28;20119;-55
2021/11/29 10:23:05;;;;;;;12.07;8.40;;;1.60;99.90;;;;;;5002238;28;20403;-55
2021/11/29 10:25:31;;;;;;;18.25;11.18;;;1.60;99.90;;;;;;5020418;28;20536;-56
2021/11/29 10:27:58;;;;;;;14.27;9.77;;;1.50;99.90;;;;;;5019772;28;20132;-56
2021/11/29 10:30:28;;;;;;;12.32;8.25;;;1.50;99.90;;;;;;5016881;28;20146;-55
2021/11/29 10:32:56;;;;;;;11.60;8.07;;;1.50;99.90;;;;;;5014072;28;20053;-56
2021/11/29 10:35:33;;;;;;;9.75;6.70;;;1.60;99.90;;;;;;5019002;28;20156;-55
2021/11/29 10:38:00;;;;;;;11.35;8.32;;;1.70;99.90;;;;;;5017576;28;20105;-55
2021/11/29 10:40:29;;;;;;;12.07;7.88;;;1.70;99.90;;;;;;5016416;28;20049;-56
2021/11/29 10:43:04;;;;;;;10.80;8.35;;;1.70;99.90;;;;;;5016498;28;20057;-54
2021/11/29 10:45:31;;;;;;;15.25;9.60;;;1.60;99.90;;;;;;5014541;28;20072;-57
2021/11/29 10:47:59;;;;;;;15.93;10.18;;;1.70;99.90;;;;;;5017749;28;20136;-56
2021/11/29 10:50:28;;;;;;;14.38;10.27;;;1.60;99.90;;;;;;5016156;28;20142;-56
2021/11/29 10:53:11;;;;;;;13.50;9.15;;;1.70;99.90;;;;;;5016504;28;20141;-56
2021/11/29 10:55:58;;;;;;;16.02;11.18;;;1.80;99.90;;;;;;5016916;28;20120;-56
2021/11/29 10:58:27;;;;;;;15.63;10.68;;;1.70;99.90;;;;;;5018337;28;20049;-54
2021/11/29 11:00:58;;;;;;;17.58;11.30;;;1.80;99.90;;;;;;5014791;28;20061;-56
2021/11/29 11:03:26;;;;;;;13.73;10.25;;;1.80;99.90;;;;;;5019145;28;20073;-56
2021/11/29 11:06:01;;;;;;;15.45;10.02;;;1.80;99.90;;;;;;5019498;28;20064;-56
2021/11/29 11:08:35;;;;;;;12.73;8.52;;;1.90;99.90;;;;;;5018270;28;20177;-56
2021/11/29 11:11:02;;;;;;;16.77;10.90;;;2.00;99.90;;;;;;5019489;28;20092;-56
2021/11/29 11:13:30;;;;;;;14.57;9.93;;;2.00;99.90;;;;;;5017939;28;20053;-55
2021/11/29 11:15:56;;;;;;;14.63;10.02;;;2.10;99.90;;;;;;5015181;28;20164;-56
2021/11/29 11:18:39;;;;;;;12.02;8.73;;;2.20;99.90;;;;;;5015673;28;20471;-56
2021/11/29 11:21:14;;;;;;;14.60;10.07;;;2.20;99.90;;;;;;5016628;28;20149;-56
2021/11/29 11:23:41;;;;;;;13.68;9.32;;;2.30;99.90;;;;;;5018047;28;20104;-56
2021/11/29 11:26:30;;;;;;;12.00;9.00;;;2.30;99.90;;;;;;5014235;28;20592;-56
2021/11/29 11:28:57;;;;;;;13.40;9.07;;;2.40;99.90;;;;;;5016578;28;20401;-54
2021/11/29 11:31:25;;;;;;;11.70;9.18;;;2.50;99.90;;;;;;5015362;28;20060;-56
2021/11/29 11:33:56;;;;;;;11.55;8.18;;;2.50;99.90;;;;;;5014296;28;20089;-55
2021/11/29 11:36:23;;;;;;;11.75;8.68;;;2.50;99.90;;;;;;5015252;28;20128;-55
2021/11/29 11:38:49;;;;;;;11.27;8.23;;;2.50;99.90;;;;;;5017940;28;20134;-56
2021/11/29 11:41:16;;;;;;;11.52;8.13;;;2.50;99.90;;;;;;5017352;28;20119;-57
2021/11/29 11:43:43;;;;;;;12.82;8.88;;;2.50;99.90;;;;;;5016685;28;20053;-55
2021/11/29 11:46:10;;;;;;;11.75;8.73;;;2.50;99.90;;;;;;5017334;28;20504;-57
2021/11/29 11:48:38;;;;;;;14.65;9.73;;;2.60;99.90;;;;;;5015914;28;20136;-58
2021/11/29 11:51:05;;;;;;;13.88;9.02;;;2.60;99.90;;;;;;5000090;28;20600;-58
2021/11/29 11:53:33;;;;;;;13.80;8.50;;;2.70;99.90;;;;;;5016240;28;20441;-61
2021/11/29 11:56:01;;;;;;;10.82;7.75;;;2.80;99.90;;;;;;5015237;28;20217;-55
2021/11/29 11:58:31;;;;;;;15.63;9.07;;;3.00;99.90;;;;;;5016692;28;20126;-54
2021/11/29 12:01:01;;;;;;;13.25;10.05;;;3.00;99.90;;;;;;5013951;28;20099;-55
2021/11/29 12:03:33;;;;;;;13.02;9.50;;;3.20;99.90;;;;;;5014770;28;20095;-54
2021/11/29 12:06:13;;;;;;;14.10;10.13;;;3.30;99.90;;;;;;5017795;28;20103;-57
2021/11/29 12:08:45;;;;;;;12.77;9.68;;;3.40;99.90;;;;;;5017688;28;20103;-57
2021/11/29 12:11:27;;;;;;;12.18;9.68;;;3.50;99.90;;;;;;5018405;28;20087;-56
2021/11/29 12:14:17;;;;;;;10.60;9.23;;;3.60;99.90;;;;;;5017217;28;20171;-56
2021/11/29 12:16:46;;;;;;;13.65;9.90;;;3.80;99.90;;;;;;5017136;28;20115;-56
2021/11/29 12:19:46;;;;;;;12.05;9.30;;;3.80;99.90;;;;;;5017489;28;20079;-56
2021/11/29 12:22:16;;;;;;;12.00;10.15;;;4.00;99.90;;;;;;5016481;28;20081;-56
2021/11/29 12:24:43;;;;;;;14.15;10.38;;;4.10;99.90;;;;;;5015578;28;20046;-54
2021/11/29 12:27:10;;;;;;;12.02;9.65;;;4.20;99.90;;;;;;5017980;28;20054;-53
2021/11/29 12:29:53;;;;;;;13.38;10.95;;;4.20;99.90;;;;;;5016818;28;20203;-54
2021/11/29 12:32:22;;;;;;;14.25;10.43;;;4.30;99.90;;;;;;5017201;28;20641;-55
2021/11/29 12:34:54;;;;;;;13.25;10.45;;;4.30;99.90;;;;;;5017390;28;20057;-56
2021/11/29 12:37:40;;;;;;;13.00;9.63;;;4.20;99.90;;;;;;5017561;28;20054;-54
2021/11/29 12:40:15;;;;;;;11.18;9.07;;;4.20;99.90;;;;;;5017348;28;20188;-55
2021/11/29 12:42:42;;;;;;;10.60;8.18;;;4.20;99.90;;;;;;5016449;28;20682;-56
2021/11/29 12:45:35;;;;;;;11.15;8.88;;;4.20;99.90;;;;;;5005108;28;20132;-53
2021/11/29 12:48:10;;;;;;;11.05;9.38;;;4.30;99.90;;;;;;5017305;28;20076;-54
2021/11/29 12:50:37;;;;;;;12.52;9.80;;;4.30;99.90;;;;;;5016370;28;20123;-57